sensor_id;sensor_type;location;lat;lon;timestamp;pressure;altitude;pressure_sealevel;temperature;humidity
65359;BME280;52491;45.900;6.346;2023-02-20T00:02:24;94829.81;;;25.24;26.61
65359;BME280;52491;45.900;6.346;2023-02-20T00:04:50;94832.69;;;25.22;27.08
65359;BME280;52491;45.900;6.346;2023-02-20T00:07:15;94831.09;;;25.21;26.67
65359;BME280;52491;45.900;6.346;2023-02-20T00:09:41;94832.97;;;25.21;27.01
65359;BME280;52491;45.900;6.346;2023-02-20T00:12:06;94828.66;;;25.20;27.05
65359;BME280;52491;45.900;6.346;2023-02-20T00:14:32;94833.44;;;25.18;26.85
65359;BME280;52491;45.900;6.346;2023-02-20T00:16:58;94828.91;;;25.18;26.73
65359;BME280;52491;45.900;6.346;2023-02-20T00:19:23;94829.16;;;25.17;26.67
65359;BME280;52491;45.900;6.346;2023-02-20T00:21:50;94831.81;;;25.17;26.90
65359;BME280;52491;45.900;6.346;2023-02-20T00:24:17;94835.56;;;25.16;26.44
65359;BME280;52491;45.900;6.346;2023-02-20T00:26:51;94834.94;;;25.14;26.68
65359;BME280;52491;45.900;6.346;2023-02-20T00:29:20;94840.53;;;25.12;26.70
65359;BME280;52491;45.900;6.346;2023-02-20T00:32:04;94839.47;;;25.13;26.68
65359;BME280;52491;45.900;6.346;2023-02-20T00:34:30;94846.91;;;25.11;26.69
65359;BME280;52491;45.900;6.346;2023-02-20T00:36:56;94840.78;;;25.11;26.46
65359;BME280;52491;45.900;6.346;2023-02-20T00:39:21;94834.88;;;25.09;26.57
65359;BME280;52491;45.900;6.346;2023-02-20T00:41:47;94840.19;;;25.09;26.70
65359;BME280;52491;45.900;6.346;2023-02-20T00:44:13;94840.19;;;25.09;26.26
65359;BME280;52491;45.900;6.346;2023-02-20T00:46:39;94836.72;;;25.08;26.53
65359;BME280;52491;45.900;6.346;2023-02-20T00:49:05;94834.88;;;25.09;26.49
65359;BME280;52491;45.900;6.346;2023-02-20T00:51:30;94838.59;;;25.08;26.32
65359;BME280;52491;45.900;6.346;2023-02-20T00:53:58;94835.34;;;25.06;26.41
65359;BME280;52491;45.900;6.346;2023-02-20T00:56:23;94833.50;;;25.06;26.46
65359;BME280;52491;45.900;6.346;2023-02-20T00:58:49;94831.88;;;25.05;26.47
65359;BME280;52491;45.900;6.346;2023-02-20T01:01:15;94831.88;;;25.05;26.47
65359;BME280;52491;45.900;6.346;2023-02-20T01:03:41;94826.78;;;25.04;26.33
65359;BME280;52491;45.900;6.346;2023-02-20T01:06:07;94830.28;;;25.04;26.36
65359;BME280;52491;45.900;6.346;2023-02-20T01:08:33;94818.78;;;25.04;26.25
65359;BME280;52491;45.900;6.346;2023-02-20T01:10:59;94815.31;;;25.03;25.87
65359;BME280;52491;45.900;6.346;2023-02-20T01:13:25;94816.09;;;25.04;25.98
65359;BME280;52491;45.900;6.346;2023-02-20T01:15:51;94805.94;;;25.00;26.20
65359;BME280;52491;45.900;6.346;2023-02-20T01:18:17;94810.22;;;25.01;26.20
65359;BME280;52491;45.900;6.346;2023-02-20T01:20:43;94801.38;;;25.01;26.01
65359;BME280;52491;45.900;6.346;2023-02-20T01:23:08;94805.94;;;25.00;25.94
65359;BME280;52491;45.900;6.346;2023-02-20T01:25:34;94806.97;;;24.99;26.25
65359;BME280;52491;45.900;6.346;2023-02-20T01:28:00;94806.72;;;25.01;25.98
65359;BME280;52491;45.900;6.346;2023-02-20T01:30:26;94804.06;;;25.01;26.09
65359;BME280;52491;45.900;6.346;2023-02-20T01:32:51;94798.97;;;24.99;26.07
65359;BME280;52491;45.900;6.346;2023-02-20T01:35:17;94796.53;;;24.98;25.99
65359;BME280;52491;45.900;6.346;2023-02-20T01:37:42;94795.50;;;24.99;26.29
65359;BME280;52491;45.900;6.346;2023-02-20T01:40:15;94793.88;;;24.98;25.82
65359;BME280;52491;45.900;6.346;2023-02-20T01:42:41;94789.59;;;24.97;25.75
65359;BME280;52491;45.900;6.346;2023-02-20T01:47:49;94788.00;;;24.96;25.75
65359;BME280;52491;45.900;6.346;2023-02-20T01:50:17;94790.41;;;24.97;25.78
65359;BME280;52491;45.900;6.346;2023-02-20T01:52:48;94787.75;;;24.97;25.96
65359;BME280;52491;45.900;6.346;2023-02-20T01:55:24;94783.47;;;24.96;25.55
65359;BME280;52491;45.900;6.346;2023-02-20T01:57:54;94786.13;;;24.96;25.80
65359;BME280;52491;45.900;6.346;2023-02-20T02:00:22;94784.28;;;24.97;25.88
65359;BME280;52491;45.900;6.346;2023-02-20T02:05:30;94773.59;;;24.97;25.61
65359;BME280;52491;45.900;6.346;2023-02-20T02:07:58;94773.59;;;24.97;25.47
65359;BME280;52491;45.900;6.346;2023-02-20T02:10:34;94773.81;;;24.95;25.53
65359;BME280;52491;45.900;6.346;2023-02-20T02:13:00;94778.84;;;24.92;25.89
65359;BME280;52491;45.900;6.346;2023-02-20T02:15:26;94778.06;;;24.91;25.75
65359;BME280;52491;45.900;6.346;2023-02-20T02:18:07;94772.50;;;24.93;25.80
65359;BME280;52491;45.900;6.346;2023-02-20T02:24:07;94778.63;;;24.93;25.50
65359;BME280;52491;45.900;6.346;2023-02-20T02:29:57;94766.59;;;24.91;25.91
65359;BME280;52491;45.900;6.346;2023-02-20T02:38:36;94763.09;;;24.90;25.51
65359;BME280;52491;45.900;6.346;2023-02-20T02:46:25;94758.56;;;24.91;25.61
65359;BME280;52491;45.900;6.346;2023-02-20T02:48:57;94767.63;;;24.90;25.60
65359;BME280;52491;45.900;6.346;2023-02-20T02:51:27;94766.25;;;24.87;25.65
65359;BME280;52491;45.900;6.346;2023-02-20T02:54:15;94772.94;;;24.90;25.51
65359;BME280;52491;45.900;6.346;2023-02-20T02:56:46;94772.16;;;24.89;25.27
65359;BME280;52491;45.900;6.346;2023-02-20T02:59:24;94768.44;;;24.90;25.35
65359;BME280;52491;45.900;6.346;2023-02-20T03:02:00;94767.63;;;24.90;25.29
65359;BME280;52491;45.900;6.346;2023-02-20T03:04:29;94762.03;;;24.91;25.42
65359;BME280;52491;45.900;6.346;2023-02-20T03:07:01;94763.91;;;24.91;25.10
65359;BME280;52491;45.900;6.346;2023-02-20T03:09:31;94757.78;;;24.90;25.14
65359;BME280;52491;45.900;6.346;2023-02-20T03:11:59;94764.94;;;24.90;25.19
65359;BME280;52491;45.900;6.346;2023-02-20T03:14:51;94769.00;;;24.92;25.23
65359;BME280;52491;45.900;6.346;2023-02-20T03:17:42;94770.28;;;24.90;25.20
65359;BME280;52491;45.900;6.346;2023-02-20T03:20:16;94769.25;;;24.91;25.13
65359;BME280;52491;45.900;6.346;2023-02-20T03:22:56;94773.78;;;24.90;25.01
65359;BME280;52491;45.900;6.346;2023-02-20T03:30:43;94760.97;;;24.92;25.20
65359;BME280;52491;45.900;6.346;2023-02-20T03:33:17;94759.59;;;24.90;25.21
65359;BME280;52491;45.900;6.346;2023-02-20T03:36:06;94755.34;;;24.89;25.18
65359;BME280;52491;45.900;6.346;2023-02-20T03:38:58;94757.78;;;24.90;25.01
65359;BME280;52491;45.900;6.346;2023-02-20T03:41:46;94743.59;;;24.90;25.17
65359;BME280;52491;45.900;6.346;2023-02-20T03:44:32;94750.00;;;24.89;25.26
65359;BME280;52491;45.900;6.346;2023-02-20T03:47:00;94744.66;;;24.89;25.05
65359;BME280;52491;45.900;6.346;2023-02-20T03:49:30;94747.34;;;24.89;25.10
65359;BME280;52491;45.900;6.346;2023-02-20T03:51:58;94744.66;;;24.89;24.99
65359;BME280;52491;45.900;6.346;2023-02-20T03:54:25;94744.44;;;24.90;25.17
65359;BME280;52491;45.900;6.346;2023-02-20T03:57:04;94746.03;;;24.91;24.86
65359;BME280;52491;45.900;6.346;2023-02-20T04:02:43;94745.47;;;24.89;24.85
65359;BME280;52491;45.900;6.346;2023-02-20T04:05:37;94755.91;;;24.91;24.90
65359;BME280;52491;45.900;6.346;2023-02-20T04:08:09;94746.53;;;24.88;25.40
65359;BME280;52491;45.900;6.346;2023-02-20T04:11:04;94748.94;;;24.90;25.07
65359;BME280;52491;45.900;6.346;2023-02-20T04:13:32;94748.41;;;24.88;25.04
65359;BME280;52491;45.900;6.346;2023-02-20T04:16:00;94753.72;;;24.88;24.86
65359;BME280;52491;45.900;6.346;2023-02-20T04:18:27;94755.09;;;24.90;24.88
65359;BME280;52491;45.900;6.346;2023-02-20T04:20:54;94758.56;;;24.91;25.14
65359;BME280;52491;45.900;6.346;2023-02-20T04:23:22;94756.94;;;24.90;24.93
65359;BME280;52491;45.900;6.346;2023-02-20T04:28:18;94744.44;;;24.90;25.06
65359;BME280;52491;45.900;6.346;2023-02-20T04:30:44;94749.78;;;24.90;25.10
65359;BME280;52491;45.900;6.346;2023-02-20T04:33:11;94748.94;;;24.90;24.97
65359;BME280;52491;45.900;6.346;2023-02-20T04:35:38;94748.94;;;24.90;25.10
65359;BME280;52491;45.900;6.346;2023-02-20T04:38:04;94751.59;;;24.90;25.08
65359;BME280;52491;45.900;6.346;2023-02-20T04:40:30;94748.94;;;24.90;25.10
65359;BME280;52491;45.900;6.346;2023-02-20T04:42:56;94746.03;;;24.91;24.96
65359;BME280;52491;45.900;6.346;2023-02-20T04:45:21;94752.44;;;24.90;24.91
65359;BME280;52491;45.900;6.346;2023-02-20T04:47:47;94748.72;;;24.91;24.87
65359;BME280;52491;45.900;6.346;2023-02-20T04:50:19;94748.72;;;24.91;24.93
65359;BME280;52491;45.900;6.346;2023-02-20T04:52:45;94750.56;;;24.91;24.69
65359;BME280;52491;45.900;6.346;2023-02-20T04:55:11;94757.78;;;24.90;24.82
65359;BME280;52491;45.900;6.346;2023-02-20T04:57:36;94758.56;;;24.91;24.91
65359;BME280;52491;45.900;6.346;2023-02-20T05:00:04;94759.38;;;24.91;24.88
65359;BME280;52491;45.900;6.346;2023-02-20T05:02:30;94755.66;;;24.92;24.64
65359;BME280;52491;45.900;6.346;2023-02-20T05:04:55;94759.38;;;24.91;24.84
65359;BME280;52491;45.900;6.346;2023-02-20T05:07:21;94757.50;;;24.92;24.52
65359;BME280;52491;45.900;6.346;2023-02-20T05:09:47;94740.72;;;24.91;24.86
65359;BME280;52491;45.900;6.346;2023-02-20T05:12:12;94746.84;;;24.92;24.73
65359;BME280;52491;45.900;6.346;2023-02-20T05:14:38;94760.19;;;24.92;24.52
65359;BME280;52491;45.900;6.346;2023-02-20T05:17:03;94754.84;;;24.92;24.71
65359;BME280;52491;45.900;6.346;2023-02-20T05:19:29;94756.47;;;24.93;24.51
65359;BME280;52491;45.900;6.346;2023-02-20T05:21:54;94763.41;;;24.94;24.47
65359;BME280;52491;45.900;6.346;2023-02-20T05:24:41;94754.84;;;24.92;24.80
65359;BME280;52491;45.900;6.346;2023-02-20T05:27:07;94765.50;;;24.92;24.58
65359;BME280;52491;45.900;6.346;2023-02-20T05:29:34;94768.75;;;24.94;24.45
65359;BME280;52491;45.900;6.346;2023-02-20T05:32:00;94766.66;;;24.96;24.58
65359;BME280;52491;45.900;6.346;2023-02-20T05:34:25;94760.50;;;24.95;24.57
65359;BME280;52491;45.900;6.346;2023-02-20T05:36:52;94766.66;;;24.96;24.39
65359;BME280;52491;45.900;6.346;2023-02-20T05:39:18;94762.34;;;24.95;24.75
65359;BME280;52491;45.900;6.346;2023-02-20T05:41:44;94762.94;;;24.97;24.68
65359;BME280;52491;45.900;6.346;2023-02-20T05:44:09;94754.94;;;24.97;24.62
65359;BME280;52491;45.900;6.346;2023-02-20T05:46:41;94756.03;;;25.01;24.93
65359;BME280;52491;45.900;6.346;2023-02-20T05:49:08;94756.03;;;25.01;24.89
65359;BME280;52491;45.900;6.346;2023-02-20T05:51:34;94753.38;;;25.01;24.72
65359;BME280;52491;45.900;6.346;2023-02-20T05:53:59;94753.63;;;24.99;24.67
65359;BME280;52491;45.900;6.346;2023-02-20T05:56:25;94759.53;;;25.01;24.67
65359;BME280;52491;45.900;6.346;2023-02-20T05:58:51;94749.66;;;25.02;24.92
65359;BME280;52491;45.900;6.346;2023-02-20T06:01:23;94751.28;;;25.03;24.88
65359;BME280;52491;45.900;6.346;2023-02-20T06:03:49;94750.47;;;25.02;25.22
65359;BME280;52491;45.900;6.346;2023-02-20T06:06:15;94743.03;;;25.05;25.16
65359;BME280;52491;45.900;6.346;2023-02-20T06:08:41;94752.66;;;25.06;24.93
65359;BME280;52491;45.900;6.346;2023-02-20T06:11:09;94748.38;;;25.05;25.26
65359;BME280;52491;45.900;6.346;2023-02-20T06:13:35;94753.44;;;25.06;25.30
65359;BME280;52491;45.900;6.346;2023-02-20T06:16:01;94757.19;;;25.05;25.36
65359;BME280;52491;45.900;6.346;2023-02-20T06:18:26;94752.41;;;25.07;25.10
65359;BME280;52491;45.900;6.346;2023-02-20T06:20:52;94751.34;;;25.08;25.43
65359;BME280;52491;45.900;6.346;2023-02-20T06:23:17;94753.22;;;25.08;25.52
65359;BME280;52491;45.900;6.346;2023-02-20T06:25:44;94750.56;;;25.08;25.41
65359;BME280;52491;45.900;6.346;2023-02-20T06:28:10;94751.34;;;25.08;25.33
65359;BME280;52491;45.900;6.346;2023-02-20T06:30:37;94754.81;;;25.09;25.47
65359;BME280;52491;45.900;6.346;2023-02-20T06:33:04;94756.69;;;25.08;25.71
65359;BME280;52491;45.900;6.346;2023-02-20T06:35:30;94750.28;;;25.09;25.43
65359;BME280;52491;45.900;6.346;2023-02-20T06:37:56;94746.81;;;25.09;25.79
65359;BME280;52491;45.900;6.346;2023-02-20T06:40:21;94746.00;;;25.08;25.43
65359;BME280;52491;45.900;6.346;2023-02-20T06:42:47;94752.41;;;25.07;25.59
65359;BME280;52491;45.900;6.346;2023-02-20T06:45:13;94755.09;;;25.07;25.65
65359;BME280;52491;45.900;6.346;2023-02-20T06:47:38;94750.78;;;25.06;25.91
65359;BME280;52491;45.900;6.346;2023-02-20T06:50:04;94751.84;;;25.05;25.60
65359;BME280;52491;45.900;6.346;2023-02-20T06:52:30;94747.56;;;25.04;25.56
65359;BME280;52491;45.900;6.346;2023-02-20T06:54:55;94751.03;;;25.05;25.81
65359;BME280;52491;45.900;6.346;2023-02-20T06:57:21;94748.38;;;25.05;25.76
65359;BME280;52491;45.900;6.346;2023-02-20T06:59:47;94750.25;;;25.04;25.81
65359;BME280;52491;45.900;6.346;2023-02-20T07:02:14;94742.47;;;25.02;25.75
65359;BME280;52491;45.900;6.346;2023-02-20T07:04:40;94748.88;;;25.01;25.67
65359;BME280;52491;45.900;6.346;2023-02-20T07:07:06;94745.94;;;25.03;25.94
65359;BME280;52491;45.900;6.346;2023-02-20T07:09:31;94749.97;;;25.06;25.64
65359;BME280;52491;45.900;6.346;2023-02-20T07:11:57;94749.41;;;25.04;25.99
65359;BME280;52491;45.900;6.346;2023-02-20T07:14:23;94744.34;;;25.02;25.99
65359;BME280;52491;45.900;6.346;2023-02-20T07:16:49;94740.03;;;25.01;25.93
65359;BME280;52491;45.900;6.346;2023-02-20T07:19:15;94737.38;;;25.01;26.06
65359;BME280;52491;45.900;6.346;2023-02-20T07:21:40;94736.91;;;25.04;25.65
65359;BME280;52491;45.900;6.346;2023-02-20T07:24:06;94735.84;;;25.05;25.94
65359;BME280;52491;45.900;6.346;2023-02-20T07:26:32;94736.06;;;25.04;26.00
65359;BME280;52491;45.900;6.346;2023-02-20T07:28:58;94740.59;;;25.03;25.82
65359;BME280;52491;45.900;6.346;2023-02-20T07:31:25;94744.06;;;25.04;26.37
65359;BME280;52491;45.900;6.346;2023-02-20T07:33:51;94752.06;;;25.04;26.20
65359;BME280;52491;45.900;6.346;2023-02-20T07:36:17;94745.94;;;25.03;25.97
65359;BME280;52491;45.900;6.346;2023-02-20T07:38:43;94752.06;;;25.04;25.95
65359;BME280;52491;45.900;6.346;2023-02-20T07:41:16;94750.25;;;25.04;26.30
65359;BME280;52491;45.900;6.346;2023-02-20T07:43:42;94743.84;;;25.05;26.28
65359;BME280;52491;45.900;6.346;2023-02-20T07:46:08;94740.09;;;25.06;26.27
65359;BME280;52491;45.900;6.346;2023-02-20T07:48:33;94733.16;;;25.05;26.17
65359;BME280;52491;45.900;6.346;2023-02-20T07:51:01;94738.50;;;25.05;26.25
65359;BME280;52491;45.900;6.346;2023-02-20T07:53:26;94733.97;;;25.06;25.69
65359;BME280;52491;45.900;6.346;2023-02-20T07:55:52;94731.56;;;25.04;26.19
65359;BME280;52491;45.900;6.346;2023-02-20T07:58:18;94733.66;;;25.02;25.95
65359;BME280;52491;45.900;6.346;2023-02-20T08:00:43;94732.59;;;25.03;26.16
65359;BME280;52491;45.900;6.346;2023-02-20T08:03:09;94731.56;;;25.04;26.04
65359;BME280;52491;45.900;6.346;2023-02-20T08:05:35;94731.31;;;25.06;25.71
65359;BME280;52491;45.900;6.346;2023-02-20T08:08:01;94727.84;;;25.05;25.93
65359;BME280;52491;45.900;6.346;2023-02-20T08:10:27;94723.56;;;25.04;26.02
65359;BME280;52491;45.900;6.346;2023-02-20T08:12:53;94720.63;;;25.06;25.93
65359;BME280;52491;45.900;6.346;2023-02-20T08:15:21;94717.41;;;25.04;25.75
65359;BME280;52491;45.900;6.346;2023-02-20T08:17:47;94725.97;;;25.06;25.82
65359;BME280;52491;45.900;6.346;2023-02-20T08:20:17;94722.50;;;25.05;25.78
65359;BME280;52491;45.900;6.346;2023-02-20T08:22:47;94716.66;;;25.08;25.44
65359;BME280;52491;45.900;6.346;2023-02-20T08:25:14;94719.59;;;25.07;25.77
65359;BME280;52491;45.900;6.346;2023-02-20T08:27:42;94722.25;;;25.07;25.69
65359;BME280;52491;45.900;6.346;2023-02-20T08:30:14;94718.75;;;25.06;25.80
65359;BME280;52491;45.900;6.346;2023-02-20T08:32:40;94722.72;;;25.04;25.53
65359;BME280;52491;45.900;6.346;2023-02-20T08:35:06;94712.31;;;25.02;25.95
65359;BME280;52491;45.900;6.346;2023-02-20T08:37:31;94706.72;;;25.04;25.53
65359;BME280;52491;45.900;6.346;2023-02-20T08:39:57;94712.88;;;25.04;25.77
65359;BME280;52491;45.900;6.346;2023-02-20T08:42:23;94709.16;;;25.05;25.37
65359;BME280;52491;45.900;6.346;2023-02-20T08:44:48;94706.50;;;25.05;25.82
65359;BME280;52491;45.900;6.346;2023-02-20T08:47:14;94702.53;;;25.08;25.59
65359;BME280;52491;45.900;6.346;2023-02-20T08:49:46;94701.47;;;25.09;25.52
65359;BME280;52491;45.900;6.346;2023-02-20T08:52:12;94699.84;;;25.08;25.35
65359;BME280;52491;45.900;6.346;2023-02-20T08:54:37;94699.59;;;25.09;25.93
65359;BME280;52491;45.900;6.346;2023-02-20T08:57:03;94695.88;;;25.10;25.79
65359;BME280;52491;45.900;6.346;2023-02-20T08:59:31;94695.88;;;25.10;25.36
65359;BME280;52491;45.900;6.346;2023-02-20T09:01:57;94697.50;;;25.11;25.18
65359;BME280;52491;45.900;6.346;2023-02-20T09:04:23;94691.13;;;25.12;25.50
65359;BME280;52491;45.900;6.346;2023-02-20T09:06:48;94691.69;;;25.14;25.21
65359;BME280;52491;45.900;6.346;2023-02-20T09:09:14;94684.50;;;25.15;25.20
65359;BME280;52491;45.900;6.346;2023-02-20T09:11:39;94679.38;;;25.13;25.56
65359;BME280;52491;45.900;6.346;2023-02-20T09:14:05;94673.81;;;25.15;25.36
65359;BME280;52491;45.900;6.346;2023-02-20T09:16:31;94683.69;;;25.14;25.28
65359;BME280;52491;45.900;6.346;2023-02-20T09:18:56;94677.50;;;25.14;25.58
65359;BME280;52491;45.900;6.346;2023-02-20T09:21:22;94674.66;;;25.15;25.19
65359;BME280;52491;45.900;6.346;2023-02-20T09:23:48;94676.25;;;25.16;25.79
65359;BME280;52491;45.900;6.346;2023-02-20T09:26:13;94672.78;;;25.16;25.66
65359;BME280;52491;45.900;6.346;2023-02-20T09:28:39;94673.34;;;25.18;25.24
65359;BME280;52491;45.900;6.346;2023-02-20T09:31:05;94672.50;;;25.17;25.77
65359;BME280;52491;45.900;6.346;2023-02-20T09:33:31;94668.00;;;25.18;25.55
65359;BME280;52491;45.900;6.346;2023-02-20T09:35:58;94667.19;;;25.17;25.33
65359;BME280;52491;45.900;6.346;2023-02-20T09:38:25;94676.25;;;25.16;25.29
65359;BME280;52491;45.900;6.346;2023-02-20T09:40:56;94674.38;;;25.17;25.45
65359;BME280;52491;45.900;6.346;2023-02-20T09:43:47;94674.16;;;25.18;25.64
65359;BME280;52491;45.900;6.346;2023-02-20T09:46:17;94676.81;;;25.18;25.23
65359;BME280;52491;45.900;6.346;2023-02-20T09:48:56;94678.41;;;25.19;25.65
65359;BME280;52491;45.900;6.346;2023-02-20T09:51:26;94670.41;;;25.19;25.38
65359;BME280;52491;45.900;6.346;2023-02-20T09:56:29;94670.97;;;25.21;25.42
65359;BME280;52491;45.900;6.346;2023-02-20T10:04:22;94661.09;;;25.22;25.59
65359;BME280;52491;45.900;6.346;2023-02-20T10:06:52;94650.44;;;25.22;25.73
65359;BME280;52491;45.900;6.346;2023-02-20T10:09:22;94653.91;;;25.22;25.88
65359;BME280;52491;45.900;6.346;2023-02-20T10:12:11;94647.25;;;25.25;25.59
65359;BME280;52491;45.900;6.346;2023-02-20T10:22:44;94654.19;;;25.26;26.08
65359;BME280;52491;45.900;6.346;2023-02-20T10:30:30;94649.19;;;25.30;26.24
65359;BME280;52491;45.900;6.346;2023-02-20T10:33:02;94646.53;;;25.30;26.32
65359;BME280;52491;45.900;6.346;2023-02-20T10:35:37;94649.19;;;25.30;26.02
65359;BME280;52491;45.900;6.346;2023-02-20T10:38:08;94634.78;;;25.31;25.90
65359;BME280;52491;45.900;6.346;2023-02-20T10:41:03;94638.81;;;25.33;26.19
65359;BME280;52491;45.900;6.346;2023-02-20T10:43:40;94632.69;;;25.33;26.19
65359;BME280;52491;45.900;6.346;2023-02-20T10:46:19;94641.53;;;25.38;25.91
65359;BME280;52491;45.900;6.346;2023-02-20T10:48:52;94643.16;;;25.39;25.89
65359;BME280;52491;45.900;6.346;2023-02-20T10:51:47;94634.63;;;25.42;26.05
65359;BME280;52491;45.900;6.346;2023-02-20T10:54:21;94623.16;;;25.42;26.12
65359;BME280;52491;45.900;6.346;2023-02-20T10:56:55;94623.72;;;25.44;25.85
65359;BME280;52491;45.900;6.346;2023-02-20T11:02:10;94618.69;;;25.48;26.00
65359;BME280;52491;45.900;6.346;2023-02-20T11:04:41;94619.47;;;25.48;26.25
65359;BME280;52491;45.900;6.346;2023-02-20T11:07:14;94614.13;;;25.48;26.40
65359;BME280;52491;45.900;6.346;2023-02-20T11:09:42;94621.13;;;25.49;26.37
65359;BME280;52491;45.900;6.346;2023-02-20T11:12:20;94606.69;;;25.50;26.04
65359;BME280;52491;45.900;6.346;2023-02-20T11:14:49;94609.13;;;25.52;26.43
65359;BME280;52491;45.900;6.346;2023-02-20T11:17:22;94606.19;;;25.53;26.00
65359;BME280;52491;45.900;6.346;2023-02-20T11:19:55;94603.50;;;25.53;26.48
65359;BME280;52491;45.900;6.346;2023-02-20T11:22:42;94601.41;;;25.55;26.24
65359;BME280;52491;45.900;6.346;2023-02-20T11:25:18;94604.88;;;25.56;26.49
65359;BME280;52491;45.900;6.346;2023-02-20T11:27:49;94595.00;;;25.56;26.29
65359;BME280;52491;45.900;6.346;2023-02-20T11:32:45;94589.94;;;25.60;26.18
65359;BME280;52491;45.900;6.346;2023-02-20T11:37:46;94585.44;;;25.60;26.21
65359;BME280;52491;45.900;6.346;2023-02-20T11:40:30;94582.50;;;25.62;25.99
65359;BME280;52491;45.900;6.346;2023-02-20T11:43:09;94570.50;;;25.64;26.05
65359;BME280;52491;45.900;6.346;2023-02-20T11:45:39;94563.31;;;25.65;26.31
65359;BME280;52491;45.900;6.346;2023-02-20T11:50:51;94551.59;;;25.66;26.22
65359;BME280;52491;45.900;6.346;2023-02-20T11:53:26;94539.28;;;25.65;26.19
65359;BME280;52491;45.900;6.346;2023-02-20T11:56:15;94543.56;;;25.66;26.37
65359;BME280;52491;45.900;6.346;2023-02-20T11:58:41;94547.03;;;25.66;26.39
65359;BME280;52491;45.900;6.346;2023-02-20T12:01:35;94532.63;;;25.67;26.20
65359;BME280;52491;45.900;6.346;2023-02-20T12:04:17;94548.41;;;25.69;26.14
65359;BME280;52491;45.900;6.346;2023-02-20T12:06:43;94537.97;;;25.67;26.14
65359;BME280;52491;45.900;6.346;2023-02-20T12:09:18;94530.50;;;25.70;26.66
65359;BME280;52491;45.900;6.346;2023-02-20T12:11:45;94527.28;;;25.67;26.63
65359;BME280;52491;45.900;6.346;2023-02-20T12:14:14;94532.66;;;25.73;26.64
65359;BME280;52491;45.900;6.346;2023-02-20T12:16:53;94530.00;;;25.73;25.25
65359;BME280;52491;45.900;6.346;2023-02-20T12:22:32;94520.44;;;25.77;26.11
65359;BME280;52491;45.900;6.346;2023-02-20T12:25:24;94518.78;;;25.76;25.85
65359;BME280;52491;45.900;6.346;2023-02-20T12:36:28;94500.09;;;25.76;26.50
65359;BME280;52491;45.900;6.346;2023-02-20T12:39:26;94493.72;;;25.77;26.03
65359;BME280;52491;45.900;6.346;2023-02-20T12:42:11;94498.00;;;25.78;26.27
65359;BME280;52491;45.900;6.346;2023-02-20T12:50:01;94481.69;;;25.79;26.87
65359;BME280;52491;45.900;6.346;2023-02-20T12:56:05;94483.88;;;25.82;26.75
65359;BME280;52491;45.900;6.346;2023-02-20T13:01:20;94476.69;;;25.83;26.56
65359;BME280;52491;45.900;6.346;2023-02-20T13:06:52;94465.22;;;25.87;26.50
65359;BME280;52491;45.900;6.346;2023-02-20T13:09:31;94464.16;;;25.88;26.48
65359;BME280;52491;45.900;6.346;2023-02-20T13:12:04;94460.94;;;25.86;26.69
65359;BME280;52491;45.900;6.346;2023-02-20T13:20:20;94447.06;;;25.89;26.50
65359;BME280;52491;45.900;6.346;2023-02-20T13:23:04;94442.00;;;25.93;26.56
65359;BME280;52491;45.900;6.346;2023-02-20T13:33:40;94433.75;;;25.95;26.09
65359;BME280;52491;45.900;6.346;2023-02-20T13:36:16;94422.00;;;25.96;26.34
65359;BME280;52491;45.900;6.346;2023-02-20T13:57:29;94396.91;;;26.02;26.00
65359;BME280;52491;45.900;6.346;2023-02-20T13:59:59;94398.78;;;26.01;26.19
65359;BME280;52491;45.900;6.346;2023-02-20T14:02:25;94403.31;;;26.01;26.56
65359;BME280;52491;45.900;6.346;2023-02-20T14:05:04;94394.22;;;26.02;26.22
65359;BME280;52491;45.900;6.346;2023-02-20T14:07:36;94386.75;;;26.04;26.01
65359;BME280;52491;45.900;6.346;2023-02-20T14:10:07;94387.56;;;26.04;26.37
65359;BME280;52491;45.900;6.346;2023-02-20T14:13:17;94385.72;;;26.05;26.26
65359;BME280;52491;45.900;6.346;2023-02-20T14:15:54;94378.50;;;26.05;26.28
65359;BME280;52491;45.900;6.346;2023-02-20T14:18:26;94384.66;;;26.06;26.21
65359;BME280;52491;45.900;6.346;2023-02-20T14:23:42;94379.53;;;26.04;26.64
65359;BME280;52491;45.900;6.346;2023-02-20T14:26:30;94381.44;;;26.09;26.37
65359;BME280;52491;45.900;6.346;2023-02-20T14:28:58;94381.69;;;26.07;26.16
65359;BME280;52491;45.900;6.346;2023-02-20T14:31:31;94371.84;;;26.08;26.21
65359;BME280;52491;45.900;6.346;2023-02-20T14:34:23;94373.19;;;26.10;26.27
65359;BME280;52491;45.900;6.346;2023-02-20T14:40:06;94362.75;;;26.09;26.69
65359;BME280;52491;45.900;6.346;2023-02-20T14:42:36;94366.22;;;26.09;26.31
65359;BME280;52491;45.900;6.346;2023-02-20T14:45:06;94365.97;;;26.11;26.63
65359;BME280;52491;45.900;6.346;2023-02-20T14:47:49;94367.31;;;26.14;26.46
65359;BME280;52491;45.900;6.346;2023-02-20T14:50:35;94367.84;;;26.16;26.09
65359;BME280;52491;45.900;6.346;2023-02-20T14:53:05;94370.78;;;26.14;26.48
65359;BME280;52491;45.900;6.346;2023-02-20T14:55:31;94365.16;;;26.16;26.25
65359;BME280;52491;45.900;6.346;2023-02-20T14:57:56;94359.03;;;26.15;26.14
65359;BME280;52491;45.900;6.346;2023-02-20T15:00:31;94360.66;;;26.16;26.19
65359;BME280;52491;45.900;6.346;2023-02-20T15:02:58;94362.50;;;26.16;26.18
65359;BME280;52491;45.900;6.346;2023-02-20T15:05:32;94370.25;;;26.17;26.13
65359;BME280;52491;45.900;6.346;2023-02-20T15:10:44;94368.13;;;26.19;25.98
65359;BME280;52491;45.900;6.346;2023-02-20T15:13:15;94372.41;;;26.20;26.38
65359;BME280;52491;45.900;6.346;2023-02-20T15:15:45;94375.06;;;26.20;26.34
65359;BME280;52491;45.900;6.346;2023-02-20T15:18:16;94373.19;;;26.21;26.19
65359;BME280;52491;45.900;6.346;2023-02-20T15:20:54;94377.50;;;26.22;26.03
65359;BME280;52491;45.900;6.346;2023-02-20T15:23:32;94380.19;;;26.22;25.99
65359;BME280;52491;45.900;6.346;2023-02-20T15:29:22;94370.00;;;26.24;26.28
65359;BME280;52491;45.900;6.346;2023-02-20T15:31:55;94365.50;;;26.24;25.88
65359;BME280;52491;45.900;6.346;2023-02-20T15:34:24;94363.84;;;26.23;25.89